sensor_id;sensor_type;location;lat;lon;timestamp;P1;durP1;ratioP1;P2;durP2;ratioP2
69621;SDS011;56841;55.964;37.674;2022-08-19T00:00:46;13.70;;;8.02;;
69621;SDS011;56841;55.964;37.674;2022-08-19T00:03:12;15.95;;;8.05;;
69621;SDS011;56841;55.964;37.674;2022-08-19T00:05:38;18.00;;;8.20;;
69621;SDS011;56841;55.964;37.674;2022-08-19T00:08:05;17.25;;;8.48;;
69621;SDS011;56841;55.964;37.674;2022-08-19T00:10:31;18.65;;;8.40;;
69621;SDS011;56841;55.964;37.674;2022-08-19T00:12:59;19.42;;;8.43;;
69621;SDS011;56841;55.964;37.674;2022-08-19T00:15:25;16.75;;;7.82;;
69621;SDS011;56841;55.964;37.674;2022-08-19T00:17:51;14.05;;;7.72;;
69621;SDS011;56841;55.964;37.674;2022-08-19T00:20:18;16.58;;;8.15;;
69621;SDS011;56841;55.964;37.674;2022-08-19T00:22:46;16.27;;;7.75;;
69621;SDS011;56841;55.964;37.674;2022-08-19T00:25:13;17.02;;;7.75;;
69621;SDS011;56841;55.964;37.674;2022-08-19T00:27:40;16.42;;;7.47;;
69621;SDS011;56841;55.964;37.674;2022-08-19T00:30:06;21.02;;;7.55;;
69621;SDS011;56841;55.964;37.674;2022-08-19T00:32:34;16.92;;;7.35;;
69621;SDS011;56841;55.964;37.674;2022-08-19T00:35:00;15.73;;;7.38;;
69621;SDS011;56841;55.964;37.674;2022-08-19T00:37:28;13.82;;;6.85;;
69621;SDS011;56841;55.964;37.674;2022-08-19T00:39:54;11.80;;;6.85;;
69621;SDS011;56841;55.964;37.674;2022-08-19T00:42:21;13.60;;;7.28;;
69621;SDS011;56841;55.964;37.674;2022-08-19T00:44:48;13.40;;;6.75;;
69621;SDS011;56841;55.964;37.674;2022-08-19T00:47:14;13.77;;;6.75;;
69621;SDS011;56841;55.964;37.674;2022-08-19T00:49:41;14.80;;;6.93;;
69621;SDS011;56841;55.964;37.674;2022-08-19T00:52:12;14.57;;;6.88;;
69621;SDS011;56841;55.964;37.674;2022-08-19T00:54:45;16.58;;;6.40;;
69621;SDS011;56841;55.964;37.674;2022-08-19T00:57:15;13.02;;;6.22;;
69621;SDS011;56841;55.964;37.674;2022-08-19T00:59:44;12.15;;;6.22;;
69621;SDS011;56841;55.964;37.674;2022-08-19T01:02:13;12.18;;;5.75;;
69621;SDS011;56841;55.964;37.674;2022-08-19T01:04:40;12.57;;;5.82;;
69621;SDS011;56841;55.964;37.674;2022-08-19T01:07:06;11.65;;;5.70;;
69621;SDS011;56841;55.964;37.674;2022-08-19T01:09:33;11.85;;;5.70;;
69621;SDS011;56841;55.964;37.674;2022-08-19T01:11:59;12.43;;;5.60;;
69621;SDS011;56841;55.964;37.674;2022-08-19T01:14:27;14.55;;;5.35;;
69621;SDS011;56841;55.964;37.674;2022-08-19T01:16:53;12.43;;;5.35;;
69621;SDS011;56841;55.964;37.674;2022-08-19T01:19:29;12.82;;;5.25;;
69621;SDS011;56841;55.964;37.674;2022-08-19T01:22:06;11.13;;;5.03;;
69621;SDS011;56841;55.964;37.674;2022-08-19T01:24:39;14.60;;;5.28;;
69621;SDS011;56841;55.964;37.674;2022-08-19T01:27:06;11.15;;;5.38;;
69621;SDS011;56841;55.964;37.674;2022-08-19T01:29:32;10.93;;;5.18;;
69621;SDS011;56841;55.964;37.674;2022-08-19T01:32:00;10.55;;;5.13;;
69621;SDS011;56841;55.964;37.674;2022-08-19T01:34:27;12.18;;;5.32;;
69621;SDS011;56841;55.964;37.674;2022-08-19T01:36:52;12.30;;;5.10;;
69621;SDS011;56841;55.964;37.674;2022-08-19T01:39:20;13.38;;;5.47;;
69621;SDS011;56841;55.964;37.674;2022-08-19T01:41:48;11.70;;;4.95;;
69621;SDS011;56841;55.964;37.674;2022-08-19T01:44:15;10.55;;;5.22;;
69621;SDS011;56841;55.964;37.674;2022-08-19T01:46:41;12.25;;;4.60;;
69621;SDS011;56841;55.964;37.674;2022-08-19T01:49:09;11.57;;;4.95;;
69621;SDS011;56841;55.964;37.674;2022-08-19T01:51:35;13.98;;;5.47;;
69621;SDS011;56841;55.964;37.674;2022-08-19T01:54:01;14.07;;;5.47;;
69621;SDS011;56841;55.964;37.674;2022-08-19T01:56:28;11.30;;;4.80;;
69621;SDS011;56841;55.964;37.674;2022-08-19T01:58:55;10.13;;;5.28;;
69621;SDS011;56841;55.964;37.674;2022-08-19T02:01:25;10.60;;;5.55;;
69621;SDS011;56841;55.964;37.674;2022-08-19T02:03:51;13.30;;;5.15;;
69621;SDS011;56841;55.964;37.674;2022-08-19T02:06:18;12.23;;;5.20;;
69621;SDS011;56841;55.964;37.674;2022-08-19T02:08:45;11.57;;;5.07;;
69621;SDS011;56841;55.964;37.674;2022-08-19T02:11:20;10.90;;;4.82;;
69621;SDS011;56841;55.964;37.674;2022-08-19T02:13:48;9.57;;;4.90;;
69621;SDS011;56841;55.964;37.674;2022-08-19T02:16:15;10.07;;;5.03;;
69621;SDS011;56841;55.964;37.674;2022-08-19T02:18:42;10.95;;;5.07;;
69621;SDS011;56841;55.964;37.674;2022-08-19T02:21:08;9.32;;;4.72;;
69621;SDS011;56841;55.964;37.674;2022-08-19T02:23:33;12.25;;;4.90;;
69621;SDS011;56841;55.964;37.674;2022-08-19T02:25:59;10.60;;;4.93;;
69621;SDS011;56841;55.964;37.674;2022-08-19T02:28:25;10.73;;;5.20;;
69621;SDS011;56841;55.964;37.674;2022-08-19T02:30:50;9.43;;;4.30;;
69621;SDS011;56841;55.964;37.674;2022-08-19T02:33:16;12.90;;;4.93;;
69621;SDS011;56841;55.964;37.674;2022-08-19T02:35:43;10.27;;;4.60;;
69621;SDS011;56841;55.964;37.674;2022-08-19T02:38:10;9.18;;;4.38;;
69621;SDS011;56841;55.964;37.674;2022-08-19T02:40:51;8.77;;;4.30;;
69621;SDS011;56841;55.964;37.674;2022-08-19T02:43:20;9.13;;;4.20;;
69621;SDS011;56841;55.964;37.674;2022-08-19T02:45:46;8.95;;;4.30;;
69621;SDS011;56841;55.964;37.674;2022-08-19T02:48:14;10.00;;;4.50;;
69621;SDS011;56841;55.964;37.674;2022-08-19T02:50:42;8.98;;;4.20;;
69621;SDS011;56841;55.964;37.674;2022-08-19T02:53:08;9.63;;;4.57;;
69621;SDS011;56841;55.964;37.674;2022-08-19T02:55:34;10.15;;;4.25;;
69621;SDS011;56841;55.964;37.674;2022-08-19T02:58:00;10.75;;;4.10;;
69621;SDS011;56841;55.964;37.674;2022-08-19T03:00:26;8.80;;;4.22;;
69621;SDS011;56841;55.964;37.674;2022-08-19T03:02:53;11.77;;;4.35;;
69621;SDS011;56841;55.964;37.674;2022-08-19T03:05:18;10.60;;;4.07;;
69621;SDS011;56841;55.964;37.674;2022-08-19T03:07:44;9.27;;;4.50;;
69621;SDS011;56841;55.964;37.674;2022-08-19T03:10:11;11.38;;;4.22;;
69621;SDS011;56841;55.964;37.674;2022-08-19T03:12:38;11.73;;;4.28;;
69621;SDS011;56841;55.964;37.674;2022-08-19T03:15:05;8.95;;;4.07;;
69621;SDS011;56841;55.964;37.674;2022-08-19T03:17:33;13.50;;;4.32;;
69621;SDS011;56841;55.964;37.674;2022-08-19T03:19:59;9.93;;;4.40;;
69621;SDS011;56841;55.964;37.674;2022-08-19T03:22:26;9.75;;;4.40;;
69621;SDS011;56841;55.964;37.674;2022-08-19T03:24:52;9.73;;;3.63;;
69621;SDS011;56841;55.964;37.674;2022-08-19T03:27:18;8.05;;;3.67;;
69621;SDS011;56841;55.964;37.674;2022-08-19T03:29:44;13.00;;;3.55;;
69621;SDS011;56841;55.964;37.674;2022-08-19T03:32:11;8.98;;;4.10;;
69621;SDS011;56841;55.964;37.674;2022-08-19T03:34:38;9.80;;;3.92;;
69621;SDS011;56841;55.964;37.674;2022-08-19T03:37:08;10.38;;;4.18;;
69621;SDS011;56841;55.964;37.674;2022-08-19T03:39:37;8.02;;;3.85;;
69621;SDS011;56841;55.964;37.674;2022-08-19T03:42:04;8.57;;;3.72;;
69621;SDS011;56841;55.964;37.674;2022-08-19T03:44:30;7.45;;;3.40;;
69621;SDS011;56841;55.964;37.674;2022-08-19T03:46:58;10.23;;;3.83;;
69621;SDS011;56841;55.964;37.674;2022-08-19T03:49:26;9.55;;;3.70;;
69621;SDS011;56841;55.964;37.674;2022-08-19T03:51:54;8.18;;;3.58;;
69621;SDS011;56841;55.964;37.674;2022-08-19T03:54:22;7.43;;;3.40;;
69621;SDS011;56841;55.964;37.674;2022-08-19T03:56:50;6.28;;;3.53;;
69621;SDS011;56841;55.964;37.674;2022-08-19T03:59:23;8.98;;;3.50;;
69621;SDS011;56841;55.964;37.674;2022-08-19T04:01:54;7.82;;;3.38;;
69621;SDS011;56841;55.964;37.674;2022-08-19T04:04:22;8.13;;;3.17;;
69621;SDS011;56841;55.964;37.674;2022-08-19T04:06:49;11.95;;;3.53;;
69621;SDS011;56841;55.964;37.674;2022-08-19T04:09:16;10.25;;;3.63;;
69621;SDS011;56841;55.964;37.674;2022-08-19T04:11:48;10.20;;;3.28;;
69621;SDS011;56841;55.964;37.674;2022-08-19T04:14:16;12.82;;;3.72;;
69621;SDS011;56841;55.964;37.674;2022-08-19T04:16:44;7.03;;;3.50;;
69621;SDS011;56841;55.964;37.674;2022-08-19T04:19:11;12.63;;;3.80;;
69621;SDS011;56841;55.964;37.674;2022-08-19T04:21:38;9.88;;;3.72;;
69621;SDS011;56841;55.964;37.674;2022-08-19T04:24:05;5.95;;;3.53;;
69621;SDS011;56841;55.964;37.674;2022-08-19T04:26:33;10.35;;;3.70;;
69621;SDS011;56841;55.964;37.674;2022-08-19T04:29:02;10.90;;;3.58;;
69621;SDS011;56841;55.964;37.674;2022-08-19T04:31:32;10.50;;;3.80;;
69621;SDS011;56841;55.964;37.674;2022-08-19T04:34:01;8.73;;;3.70;;
69621;SDS011;56841;55.964;37.674;2022-08-19T04:39:01;8.27;;;3.50;;
69621;SDS011;56841;55.964;37.674;2022-08-19T04:41:30;7.45;;;3.42;;
69621;SDS011;56841;55.964;37.674;2022-08-19T04:44:14;12.40;;;4.07;;
69621;SDS011;56841;55.964;37.674;2022-08-19T04:46:43;9.65;;;3.60;;
69621;SDS011;56841;55.964;37.674;2022-08-19T04:49:10;8.05;;;3.65;;
69621;SDS011;56841;55.964;37.674;2022-08-19T04:51:39;8.40;;;3.50;;
69621;SDS011;56841;55.964;37.674;2022-08-19T04:54:08;8.02;;;3.78;;
69621;SDS011;56841;55.964;37.674;2022-08-19T04:56:34;10.02;;;3.83;;
69621;SDS011;56841;55.964;37.674;2022-08-19T04:59:00;10.18;;;3.88;;
69621;SDS011;56841;55.964;37.674;2022-08-19T05:01:29;9.85;;;3.80;;
69621;SDS011;56841;55.964;37.674;2022-08-19T05:03:58;8.73;;;3.65;;
69621;SDS011;56841;55.964;37.674;2022-08-19T05:06:26;8.05;;;3.70;;
69621;SDS011;56841;55.964;37.674;2022-08-19T05:08:54;12.68;;;4.32;;
69621;SDS011;56841;55.964;37.674;2022-08-19T05:11:22;6.30;;;3.60;;
69621;SDS011;56841;55.964;37.674;2022-08-19T05:13:53;8.30;;;3.95;;
69621;SDS011;56841;55.964;37.674;2022-08-19T05:16:20;9.65;;;3.85;;
69621;SDS011;56841;55.964;37.674;2022-08-19T05:18:47;10.00;;;3.90;;
69621;SDS011;56841;55.964;37.674;2022-08-19T05:21:33;8.25;;;4.03;;
69621;SDS011;56841;55.964;37.674;2022-08-19T05:24:22;10.98;;;4.10;;
69621;SDS011;56841;55.964;37.674;2022-08-19T05:26:49;7.93;;;4.13;;
69621;SDS011;56841;55.964;37.674;2022-08-19T05:29:17;8.57;;;4.00;;
69621;SDS011;56841;55.964;37.674;2022-08-19T05:31:45;8.70;;;3.92;;
69621;SDS011;56841;55.964;37.674;2022-08-19T05:34:14;11.73;;;4.97;;
69621;SDS011;56841;55.964;37.674;2022-08-19T05:36:47;12.43;;;4.57;;
69621;SDS011;56841;55.964;37.674;2022-08-19T05:39:16;10.75;;;5.30;;
69621;SDS011;56841;55.964;37.674;2022-08-19T05:41:45;9.90;;;4.07;;
69621;SDS011;56841;55.964;37.674;2022-08-19T05:44:14;11.93;;;4.63;;
69621;SDS011;56841;55.964;37.674;2022-08-19T05:46:41;8.38;;;4.53;;
69621;SDS011;56841;55.964;37.674;2022-08-19T05:49:13;8.60;;;4.10;;
69621;SDS011;56841;55.964;37.674;2022-08-19T05:51:41;9.60;;;4.35;;
69621;SDS011;56841;55.964;37.674;2022-08-19T05:54:07;8.38;;;3.90;;
69621;SDS011;56841;55.964;37.674;2022-08-19T05:56:34;8.55;;;4.30;;
69621;SDS011;56841;55.964;37.674;2022-08-19T05:59:04;11.45;;;4.28;;
69621;SDS011;56841;55.964;37.674;2022-08-19T06:01:33;9.05;;;4.25;;
69621;SDS011;56841;55.964;37.674;2022-08-19T06:03:59;5.85;;;3.83;;
69621;SDS011;56841;55.964;37.674;2022-08-19T06:06:25;10.95;;;4.22;;
69621;SDS011;56841;55.964;37.674;2022-08-19T06:08:51;7.93;;;3.70;;
69621;SDS011;56841;55.964;37.674;2022-08-19T06:11:22;9.25;;;4.05;;
69621;SDS011;56841;55.964;37.674;2022-08-19T06:14:03;9.45;;;4.07;;
69621;SDS011;56841;55.964;37.674;2022-08-19T06:16:34;10.20;;;4.10;;
69621;SDS011;56841;55.964;37.674;2022-08-19T06:19:04;8.45;;;4.03;;
69621;SDS011;56841;55.964;37.674;2022-08-19T06:21:33;5.97;;;4.10;;
69621;SDS011;56841;55.964;37.674;2022-08-19T06:24:03;12.32;;;4.22;;
69621;SDS011;56841;55.964;37.674;2022-08-19T06:26:31;7.95;;;3.97;;
69621;SDS011;56841;55.964;37.674;2022-08-19T06:28:59;7.72;;;3.97;;
69621;SDS011;56841;55.964;37.674;2022-08-19T06:31:26;5.88;;;3.80;;
69621;SDS011;56841;55.964;37.674;2022-08-19T06:33:53;7.88;;;3.95;;
69621;SDS011;56841;55.964;37.674;2022-08-19T06:36:22;9.57;;;3.83;;
69621;SDS011;56841;55.964;37.674;2022-08-19T06:38:57;11.55;;;4.20;;
69621;SDS011;56841;55.964;37.674;2022-08-19T06:41:24;11.30;;;4.72;;
69621;SDS011;56841;55.964;37.674;2022-08-19T06:43:51;9.23;;;4.18;;
69621;SDS011;56841;55.964;37.674;2022-08-19T06:46:17;10.23;;;3.88;;
69621;SDS011;56841;55.964;37.674;2022-08-19T06:48:47;9.73;;;4.20;;
69621;SDS011;56841;55.964;37.674;2022-08-19T06:51:16;12.13;;;4.15;;
69621;SDS011;56841;55.964;37.674;2022-08-19T06:53:46;6.78;;;3.70;;
69621;SDS011;56841;55.964;37.674;2022-08-19T06:56:13;9.63;;;4.03;;
69621;SDS011;56841;55.964;37.674;2022-08-19T06:58:40;8.38;;;4.03;;
69621;SDS011;56841;55.964;37.674;2022-08-19T07:01:07;8.70;;;4.00;;
69621;SDS011;56841;55.964;37.674;2022-08-19T07:03:34;9.70;;;4.47;;
69621;SDS011;56841;55.964;37.674;2022-08-19T07:06:08;9.02;;;3.90;;
69621;SDS011;56841;55.964;37.674;2022-08-19T07:08:36;10.57;;;3.80;;
69621;SDS011;56841;55.964;37.674;2022-08-19T07:11:06;6.45;;;3.40;;
69621;SDS011;56841;55.964;37.674;2022-08-19T07:13:33;7.30;;;3.22;;
69621;SDS011;56841;55.964;37.674;2022-08-19T07:16:03;6.97;;;3.47;;
69621;SDS011;56841;55.964;37.674;2022-08-19T07:18:30;7.25;;;3.50;;
69621;SDS011;56841;55.964;37.674;2022-08-19T07:21:11;7.20;;;3.58;;
69621;SDS011;56841;55.964;37.674;2022-08-19T07:23:40;7.70;;;4.40;;
69621;SDS011;56841;55.964;37.674;2022-08-19T07:26:13;10.85;;;3.50;;
69621;SDS011;56841;55.964;37.674;2022-08-19T07:28:42;8.95;;;2.95;;
69621;SDS011;56841;55.964;37.674;2022-08-19T07:31:10;6.88;;;3.30;;
69621;SDS011;56841;55.964;37.674;2022-08-19T07:33:38;10.13;;;3.20;;
69621;SDS011;56841;55.964;37.674;2022-08-19T07:36:06;7.65;;;3.15;;
69621;SDS011;56841;55.964;37.674;2022-08-19T07:38:35;9.77;;;3.22;;
69621;SDS011;56841;55.964;37.674;2022-08-19T07:41:01;7.32;;;3.38;;
69621;SDS011;56841;55.964;37.674;2022-08-19T07:43:27;5.57;;;3.05;;
69621;SDS011;56841;55.964;37.674;2022-08-19T07:45:54;7.88;;;3.13;;
69621;SDS011;56841;55.964;37.674;2022-08-19T07:48:25;8.35;;;3.20;;
69621;SDS011;56841;55.964;37.674;2022-08-19T07:50:56;6.47;;;3.00;;
69621;SDS011;56841;55.964;37.674;2022-08-19T07:53:27;10.15;;;3.20;;
69621;SDS011;56841;55.964;37.674;2022-08-19T07:55:53;9.75;;;3.42;;
69621;SDS011;56841;55.964;37.674;2022-08-19T07:58:21;7.00;;;2.90;;
69621;SDS011;56841;55.964;37.674;2022-08-19T08:00:48;10.90;;;3.03;;
69621;SDS011;56841;55.964;37.674;2022-08-19T08:03:16;7.35;;;3.30;;
69621;SDS011;56841;55.964;37.674;2022-08-19T08:05:45;9.10;;;3.00;;
69621;SDS011;56841;55.964;37.674;2022-08-19T08:08:29;8.50;;;3.67;;
69621;SDS011;56841;55.964;37.674;2022-08-19T08:11:15;12.20;;;3.10;;
69621;SDS011;56841;55.964;37.674;2022-08-19T08:13:42;7.75;;;3.08;;
69621;SDS011;56841;55.964;37.674;2022-08-19T08:16:08;8.50;;;2.70;;
69621;SDS011;56841;55.964;37.674;2022-08-19T08:18:35;11.27;;;3.20;;
69621;SDS011;56841;55.964;37.674;2022-08-19T08:21:07;13.90;;;3.30;;
69621;SDS011;56841;55.964;37.674;2022-08-19T08:23:33;8.73;;;3.10;;
69621;SDS011;56841;55.964;37.674;2022-08-19T08:25:59;10.35;;;3.17;;
69621;SDS011;56841;55.964;37.674;2022-08-19T08:28:26;7.82;;;3.00;;
69621;SDS011;56841;55.964;37.674;2022-08-19T08:30:52;11.07;;;2.95;;
69621;SDS011;56841;55.964;37.674;2022-08-19T08:33:20;5.88;;;3.10;;
69621;SDS011;56841;55.964;37.674;2022-08-19T08:35:48;8.20;;;3.70;;
69621;SDS011;56841;55.964;37.674;2022-08-19T08:38:14;7.97;;;3.38;;
69621;SDS011;56841;55.964;37.674;2022-08-19T08:40:47;7.75;;;3.35;;
69621;SDS011;56841;55.964;37.674;2022-08-19T08:48:59;9.23;;;3.88;;
69621;SDS011;56841;55.964;37.674;2022-08-19T08:51:27;10.77;;;3.65;;
69621;SDS011;56841;55.964;37.674;2022-08-19T08:54:01;6.70;;;3.55;;
69621;SDS011;56841;55.964;37.674;2022-08-19T08:56:32;8.30;;;3.80;;
69621;SDS011;56841;55.964;37.674;2022-08-19T08:59:03;5.97;;;3.47;;
69621;SDS011;56841;55.964;37.674;2022-08-19T09:01:35;10.45;;;3.47;;
69621;SDS011;56841;55.964;37.674;2022-08-19T09:04:05;7.68;;;3.25;;
69621;SDS011;56841;55.964;37.674;2022-08-19T09:06:40;6.07;;;3.30;;
69621;SDS011;56841;55.964;37.674;2022-08-19T09:09:43;8.15;;;3.63;;
69621;SDS011;56841;55.964;37.674;2022-08-19T09:17:32;7.88;;;3.40;;
69621;SDS011;56841;55.964;37.674;2022-08-19T09:22:34;6.03;;;3.65;;
69621;SDS011;56841;55.964;37.674;2022-08-19T09:25:02;10.65;;;3.63;;
69621;SDS011;56841;55.964;37.674;2022-08-19T09:27:30;8.20;;;3.80;;
69621;SDS011;56841;55.964;37.674;2022-08-19T09:29:57;5.55;;;3.50;;
69621;SDS011;56841;55.964;37.674;2022-08-19T09:32:23;9.27;;;3.97;;
69621;SDS011;56841;55.964;37.674;2022-08-19T09:34:51;7.72;;;3.72;;
69621;SDS011;56841;55.964;37.674;2022-08-19T09:37:20;9.95;;;3.75;;
69621;SDS011;56841;55.964;37.674;2022-08-19T09:39:47;6.65;;;3.70;;
69621;SDS011;56841;55.964;37.674;2022-08-19T09:42:13;8.10;;;3.70;;
69621;SDS011;56841;55.964;37.674;2022-08-19T09:44:40;7.43;;;3.60;;
69621;SDS011;56841;55.964;37.674;2022-08-19T09:47:07;9.52;;;3.88;;
69621;SDS011;56841;55.964;37.674;2022-08-19T09:49:34;7.85;;;3.53;;
69621;SDS011;56841;55.964;37.674;2022-08-19T09:52:00;5.95;;;3.53;;
69621;SDS011;56841;55.964;37.674;2022-08-19T09:54:27;11.27;;;3.80;;
69621;SDS011;56841;55.964;37.674;2022-08-19T09:56:53;7.35;;;3.42;;
69621;SDS011;56841;55.964;37.674;2022-08-19T09:59:19;7.30;;;3.35;;
69621;SDS011;56841;55.964;37.674;2022-08-19T10:01:45;7.70;;;3.47;;
69621;SDS011;56841;55.964;37.674;2022-08-19T10:04:11;6.72;;;3.88;;
69621;SDS011;56841;55.964;37.674;2022-08-19T10:06:38;9.02;;;3.95;;
69621;SDS011;56841;55.964;37.674;2022-08-19T10:09:06;7.80;;;3.75;;
69621;SDS011;56841;55.964;37.674;2022-08-19T10:11:33;6.88;;;3.47;;
69621;SDS011;56841;55.964;37.674;2022-08-19T10:14:01;14.60;;;4.78;;
69621;SDS011;56841;55.964;37.674;2022-08-19T10:16:31;11.82;;;3.70;;
69621;SDS011;56841;55.964;37.674;2022-08-19T10:18:57;11.45;;;3.80;;
69621;SDS011;56841;55.964;37.674;2022-08-19T10:21:25;11.90;;;4.85;;
69621;SDS011;56841;55.964;37.674;2022-08-19T10:23:58;6.88;;;3.88;;
69621;SDS011;56841;55.964;37.674;2022-08-19T10:26:28;7.93;;;3.53;;
69621;SDS011;56841;55.964;37.674;2022-08-19T10:28:56;12.20;;;3.55;;
69621;SDS011;56841;55.964;37.674;2022-08-19T10:31:28;10.13;;;3.40;;
69621;SDS011;56841;55.964;37.674;2022-08-19T10:33:56;7.97;;;3.17;;
69621;SDS011;56841;55.964;37.674;2022-08-19T10:36:28;8.77;;;3.30;;
69621;SDS011;56841;55.964;37.674;2022-08-19T10:39:11;9.80;;;3.15;;
69621;SDS011;56841;55.964;37.674;2022-08-19T10:41:39;9.55;;;3.38;;
69621;SDS011;56841;55.964;37.674;2022-08-19T10:44:06;7.53;;;3.30;;
69621;SDS011;56841;55.964;37.674;2022-08-19T10:46:39;11.75;;;3.33;;
69621;SDS011;56841;55.964;37.674;2022-08-19T10:49:07;8.00;;;2.90;;
69621;SDS011;56841;55.964;37.674;2022-08-19T10:51:35;7.40;;;2.75;;
69621;SDS011;56841;55.964;37.674;2022-08-19T10:54:19;6.70;;;2.83;;
69621;SDS011;56841;55.964;37.674;2022-08-19T10:56:45;5.93;;;3.00;;
69621;SDS011;56841;55.964;37.674;2022-08-19T11:01:44;11.98;;;3.50;;
69621;SDS011;56841;55.964;37.674;2022-08-19T11:04:11;8.55;;;3.85;;
69621;SDS011;56841;55.964;37.674;2022-08-19T11:06:39;10.55;;;3.35;;
69621;SDS011;56841;55.964;37.674;2022-08-19T11:09:11;7.85;;;2.72;;
69621;SDS011;56841;55.964;37.674;2022-08-19T11:11:43;5.38;;;2.97;;
69621;SDS011;56841;55.964;37.674;2022-08-19T11:14:10;12.77;;;2.92;;
69621;SDS011;56841;55.964;37.674;2022-08-19T11:16:39;5.78;;;2.92;;
69621;SDS011;56841;55.964;37.674;2022-08-19T11:19:07;6.88;;;3.00;;
69621;SDS011;56841;55.964;37.674;2022-08-19T11:21:41;7.28;;;2.88;;
69621;SDS011;56841;55.964;37.674;2022-08-19T11:24:10;7.65;;;3.28;;
69621;SDS011;56841;55.964;37.674;2022-08-19T11:26:44;7.78;;;3.10;;
69621;SDS011;56841;55.964;37.674;2022-08-19T11:29:11;7.78;;;3.33;;
69621;SDS011;56841;55.964;37.674;2022-08-19T11:31:39;6.28;;;3.00;;
69621;SDS011;56841;55.964;37.674;2022-08-19T11:34:10;9.50;;;3.78;;
69621;SDS011;56841;55.964;37.674;2022-08-19T11:36:38;6.43;;;2.78;;
69621;SDS011;56841;55.964;37.674;2022-08-19T11:39:06;5.25;;;2.85;;
69621;SDS011;56841;55.964;37.674;2022-08-19T11:41:33;6.32;;;2.78;;
69621;SDS011;56841;55.964;37.674;2022-08-19T11:43:59;10.05;;;3.13;;
69621;SDS011;56841;55.964;37.674;2022-08-19T11:46:25;9.65;;;2.95;;
69621;SDS011;56841;55.964;37.674;2022-08-19T11:48:55;10.68;;;2.92;;
69621;SDS011;56841;55.964;37.674;2022-08-19T11:51:22;8.65;;;2.42;;
69621;SDS011;56841;55.964;37.674;2022-08-19T11:53:52;8.18;;;2.50;;
69621;SDS011;56841;55.964;37.674;2022-08-19T11:56:20;7.28;;;2.72;;
69621;SDS011;56841;55.964;37.674;2022-08-19T11:58:46;17.17;;;3.35;;
69621;SDS011;56841;55.964;37.674;2022-08-19T12:01:14;10.30;;;2.40;;
69621;SDS011;56841;55.964;37.674;2022-08-19T12:03:42;4.70;;;2.35;;
69621;SDS011;56841;55.964;37.674;2022-08-19T12:06:10;6.60;;;2.90;;
69621;SDS011;56841;55.964;37.674;2022-08-19T12:08:39;11.50;;;3.03;;
69621;SDS011;56841;55.964;37.674;2022-08-19T12:11:05;7.85;;;2.42;;
69621;SDS011;56841;55.964;37.674;2022-08-19T12:13:33;10.32;;;2.85;;
69621;SDS011;56841;55.964;37.674;2022-08-19T12:16:00;7.85;;;2.70;;
69621;SDS011;56841;55.964;37.674;2022-08-19T12:18:27;6.40;;;2.65;;
69621;SDS011;56841;55.964;37.674;2022-08-19T12:20:53;8.63;;;2.95;;
69621;SDS011;56841;55.964;37.674;2022-08-19T12:23:22;8.95;;;2.90;;
69621;SDS011;56841;55.964;37.674;2022-08-19T12:25:48;7.90;;;2.88;;
69621;SDS011;56841;55.964;37.674;2022-08-19T12:28:23;7.32;;;2.88;;
69621;SDS011;56841;55.964;37.674;2022-08-19T12:30:50;6.53;;;2.72;;
69621;SDS011;56841;55.964;37.674;2022-08-19T12:33:17;7.85;;;2.80;;
69621;SDS011;56841;55.964;37.674;2022-08-19T12:35:45;8.38;;;2.90;;
69621;SDS011;56841;55.964;37.674;2022-08-19T12:38:13;7.80;;;2.58;;
69621;SDS011;56841;55.964;37.674;2022-08-19T12:40:40;6.75;;;3.00;;
69621;SDS011;56841;55.964;37.674;2022-08-19T12:43:06;6.53;;;2.97;;
69621;SDS011;56841;55.964;37.674;2022-08-19T12:45:33;7.30;;;2.90;;
69621;SDS011;56841;55.964;37.674;2022-08-19T12:47:59;10.15;;;3.22;;
69621;SDS011;56841;55.964;37.674;2022-08-19T12:50:25;7.63;;;2.95;;
69621;SDS011;56841;55.964;37.674;2022-08-19T12:52:51;7.05;;;3.40;;
69621;SDS011;56841;55.964;37.674;2022-08-19T12:55:16;8.35;;;3.42;;
69621;SDS011;56841;55.964;37.674;2022-08-19T12:57:44;14.05;;;5.05;;
69621;SDS011;56841;55.964;37.674;2022-08-19T13:00:11;14.93;;;4.93;;
69621;SDS011;56841;55.964;37.674;2022-08-19T13:02:39;9.10;;;3.97;;
69621;SDS011;56841;55.964;37.674;2022-08-19T13:05:07;8.65;;;4.00;;
69621;SDS011;56841;55.964;37.674;2022-08-19T13:07:37;9.70;;;3.88;;
69621;SDS011;56841;55.964;37.674;2022-08-19T13:10:07;11.15;;;3.67;;
69621;SDS011;56841;55.964;37.674;2022-08-19T13:12:36;8.35;;;3.15;;
69621;SDS011;56841;55.964;37.674;2022-08-19T13:15:02;7.05;;;3.03;;
69621;SDS011;56841;55.964;37.674;2022-08-19T13:17:29;10.02;;;3.10;;
69621;SDS011;56841;55.964;37.674;2022-08-19T13:19:54;6.68;;;3.40;;
69621;SDS011;56841;55.964;37.674;2022-08-19T13:22:20;5.60;;;3.45;;
69621;SDS011;56841;55.964;37.674;2022-08-19T13:24:46;9.02;;;3.20;;
69621;SDS011;56841;55.964;37.674;2022-08-19T13:27:13;12.50;;;3.63;;
69621;SDS011;56841;55.964;37.674;2022-08-19T13:29:40;9.50;;;2.80;;
69621;SDS011;56841;55.964;37.674;2022-08-19T13:32:25;7.68;;;3.15;;
69621;SDS011;56841;55.964;37.674;2022-08-19T13:35:09;10.40;;;3.58;;
69621;SDS011;56841;55.964;37.674;2022-08-19T13:37:35;6.88;;;3.58;;
69621;SDS011;56841;55.964;37.674;2022-08-19T13:40:15;7.20;;;3.38;;
69621;SDS011;56841;55.964;37.674;2022-08-19T13:42:44;10.15;;;3.50;;
69621;SDS011;56841;55.964;37.674;2022-08-19T13:45:18;10.10;;;3.25;;
69621;SDS011;56841;55.964;37.674;2022-08-19T13:47:46;8.02;;;4.15;;
69621;SDS011;56841;55.964;37.674;2022-08-19T13:50:14;10.43;;;3.80;;
69621;SDS011;56841;55.964;37.674;2022-08-19T13:52:42;10.98;;;5.20;;
69621;SDS011;56841;55.964;37.674;2022-08-19T13:55:09;9.98;;;4.13;;
69621;SDS011;56841;55.964;37.674;2022-08-19T13:57:37;10.82;;;4.68;;
69621;SDS011;56841;55.964;37.674;2022-08-19T14:00:08;9.95;;;3.90;;
69621;SDS011;56841;55.964;37.674;2022-08-19T14:02:38;9.95;;;3.40;;
69621;SDS011;56841;55.964;37.674;2022-08-19T14:05:05;8.88;;;3.20;;
69621;SDS011;56841;55.964;37.674;2022-08-19T14:07:32;8.23;;;3.42;;
69621;SDS011;56841;55.964;37.674;2022-08-19T14:09:58;7.88;;;3.53;;
69621;SDS011;56841;55.964;37.674;2022-08-19T14:12:23;6.43;;;3.03;;
69621;SDS011;56841;55.964;37.674;2022-08-19T14:14:49;10.65;;;3.53;;
69621;SDS011;56841;55.964;37.674;2022-08-19T14:17:15;10.48;;;3.22;;
69621;SDS011;56841;55.964;37.674;2022-08-19T14:19:42;6.28;;;3.00;;
69621;SDS011;56841;55.964;37.674;2022-08-19T14:22:09;9.50;;;3.00;;
69621;SDS011;56841;55.964;37.674;2022-08-19T14:24:36;11.10;;;3.33;;
69621;SDS011;56841;55.964;37.674;2022-08-19T14:27:05;11.38;;;3.40;;
69621;SDS011;56841;55.964;37.674;2022-08-19T14:29:32;5.43;;;2.90;;
69621;SDS011;56841;55.964;37.674;2022-08-19T14:32:00;9.32;;;3.53;;
69621;SDS011;56841;55.964;37.674;2022-08-19T14:34:26;6.22;;;3.20;;
69621;SDS011;56841;55.964;37.674;2022-08-19T14:36:52;7.97;;;3.50;;
69621;SDS011;56841;55.964;37.674;2022-08-19T14:39:18;8.63;;;4.18;;
69621;SDS011;56841;55.964;37.674;2022-08-19T14:41:44;7.40;;;3.70;;
69621;SDS011;56841;55.964;37.674;2022-08-19T14:44:13;7.65;;;3.50;;
69621;SDS011;56841;55.964;37.674;2022-08-19T14:46:39;7.28;;;3.42;;
69621;SDS011;56841;55.964;37.674;2022-08-19T14:49:06;9.70;;;3.83;;
69621;SDS011;56841;55.964;37.674;2022-08-19T14:51:33;24.20;;;5.75;;
69621;SDS011;56841;55.964;37.674;2022-08-19T14:53:59;9.52;;;3.58;;